Terminal Aerodrome Forecast
Issued by NWS Charleston, WV

Current Version | Previous Version | Graphics & Text | Print | Product List | Glossary On
Versions: 1 2 3 4 5 6 7 8 9 10 11 12 13 14 15 16 17 18 19 20 21 22
000
FTUS41 KRLX 012320
TAFEKN
TAF
KEKN 012320Z 0200/0224 VRB03KT P6SM VCTS OVC060CB
     FM020400 00000KT 6SM TSRA BR OVC060CB
     FM020600 VRB03KT P6SM VCTS BKN090CB
     FM020800 22005KT 5SM SHRA BR VCTS OVC040CB
     FM021100 24004KT 4SM BR BKN050
     FM021300 24006KT 6SM BR BKN025
     FM021600 25011G18KT P6SM BKN035
     FM022300 27007KT P6SM BKN050=

USA.gov is the U.S. government's official web portal to all federal, state and local government web resources and services.